createdAt,value
2022-10-20T00:04:59.161Z,4.10
2022-10-20T00:07:47.664Z,3.80
2022-10-20T00:10:36.324Z,3.80
2022-10-20T00:13:26.710Z,3.83
2022-10-20T00:16:17.764Z,3.80
2022-10-20T00:19:08.741Z,4.40
2022-10-20T00:21:59.217Z,4.03
2022-10-20T00:24:50.258Z,3.87
2022-10-20T00:27:40.901Z,3.93
2022-10-20T00:30:29.164Z,3.70
2022-10-20T00:33:21.026Z,4.73
2022-10-20T00:36:13.599Z,4.70
2022-10-20T00:39:08.579Z,3.87
2022-10-20T00:41:59.533Z,4.00
2022-10-20T00:44:53.417Z,4.00
2022-10-20T00:47:49.290Z,3.80
2022-10-20T00:50:42.607Z,4.13
2022-10-20T00:53:35.423Z,4.00
2022-10-20T00:56:29.461Z,3.67
2022-10-20T00:59:24.392Z,3.57
2022-10-20T01:02:14.438Z,4.13
2022-10-20T01:05:05.414Z,3.67
2022-10-20T01:08:01.080Z,3.63
2022-10-20T01:10:58.480Z,3.80
2022-10-20T01:14:04.209Z,4.13
2022-10-20T01:17:00.068Z,2.97
2022-10-20T01:20:24.825Z,3.60
2022-10-20T01:23:42.763Z,3.87
2022-10-20T01:27:07.753Z,4.27
2022-10-20T01:30:12.249Z,3.87
2022-10-20T01:33:36.628Z,3.90
2022-10-20T01:36:34.799Z,4.13
2022-10-20T01:39:32.537Z,4.30
2022-10-20T01:42:25.754Z,3.60
2022-10-20T01:45:20.596Z,3.73
2022-10-20T01:48:11.586Z,3.60
2022-10-20T01:51:05.546Z,3.57
2022-10-20T01:53:53.743Z,3.10
2022-10-20T01:56:54.865Z,4.30
2022-10-20T02:00:03.281Z,3.40
2022-10-20T02:03:06.619Z,3.60
2022-10-20T02:06:09.004Z,3.20
2022-10-20T02:09:08.680Z,3.63
2022-10-20T02:12:03.596Z,4.40
2022-10-20T02:15:01.026Z,3.13
2022-10-20T02:17:58.728Z,3.70
2022-10-20T02:20:57.456Z,3.53
2022-10-20T02:23:52.353Z,3.60
2022-10-20T02:26:41.691Z,3.33
2022-10-20T02:29:37.321Z,3.37
2022-10-20T02:32:39.598Z,3.63
2022-10-20T02:35:34.832Z,3.80
2022-10-20T02:38:26.700Z,3.50
2022-10-20T02:41:16.131Z,3.60
2022-10-20T02:44:05.807Z,3.23
2022-10-20T02:46:57.297Z,3.50
2022-10-20T02:49:48.685Z,4.30
2022-10-20T02:52:38.393Z,3.67
2022-10-20T02:55:29.616Z,3.27
2022-10-20T02:58:21.847Z,4.00
2022-10-20T03:01:10.074Z,3.77
2022-10-20T03:04:01.215Z,3.33
2022-10-20T03:06:49.936Z,3.90
2022-10-20T03:09:43.158Z,3.00
2022-10-20T03:12:35.090Z,3.43
2022-10-20T03:15:25.123Z,3.10
2022-10-20T03:18:13.813Z,3.00
2022-10-20T03:21:02.355Z,3.30
2022-10-20T03:23:55.700Z,4.03
2022-10-20T03:26:44.495Z,3.53
2022-10-20T03:29:36.288Z,3.30
2022-10-20T03:32:25.374Z,3.80
2022-10-20T03:35:15.059Z,3.73
2022-10-20T03:38:03.786Z,3.60
2022-10-20T03:40:53.078Z,3.90
2022-10-20T03:43:41.730Z,3.63
2022-10-20T03:46:31.231Z,4.43
2022-10-20T03:49:19.775Z,4.10
2022-10-20T03:52:09.219Z,3.70
2022-10-20T03:54:57.854Z,3.97
2022-10-20T03:57:45.995Z,3.53
2022-10-20T04:00:34.453Z,4.70
2022-10-20T04:03:42.284Z,4.70
2022-10-20T04:06:38.748Z,4.20
2022-10-20T04:09:36.102Z,3.83
2022-10-20T04:12:36.313Z,4.30
2022-10-20T04:15:27.450Z,3.93
2022-10-20T04:18:23.128Z,4.50
2022-10-20T04:21:13.675Z,5.00
2022-10-20T04:24:07.300Z,4.50
2022-10-20T04:26:56.759Z,4.73
2022-10-20T04:29:45.387Z,5.80
2022-10-20T04:32:33.679Z,4.90
2022-10-20T04:35:22.056Z,4.27
2022-10-20T04:38:11.936Z,4.87
2022-10-20T04:41:04.100Z,4.43
2022-10-20T04:43:53.314Z,4.40
2022-10-20T04:46:42.677Z,4.60
2022-10-20T04:49:30.787Z,6.30
2022-10-20T04:52:20.905Z,4.80
2022-10-20T04:55:11.068Z,5.80
2022-10-20T04:57:59.860Z,5.07
2022-10-20T05:00:48.483Z,5.40
2022-10-20T05:03:37.182Z,5.10
2022-10-20T05:06:27.260Z,5.67
2022-10-20T05:09:18.255Z,5.60
2022-10-20T05:12:08.951Z,5.20
2022-10-20T05:14:57.060Z,6.10
2022-10-20T05:17:45.201Z,5.57
2022-10-20T05:20:40.984Z,5.73
2022-10-20T05:23:35.423Z,5.60
2022-10-20T05:26:26.199Z,6.30
2022-10-20T05:29:15.792Z,5.47
2022-10-20T05:32:03.993Z,5.67
2022-10-20T05:34:52.205Z,6.77
2022-10-20T05:37:41.199Z,6.50
2022-10-20T05:40:30.718Z,6.00
2022-10-20T05:43:19.450Z,5.53
2022-10-20T05:46:11.869Z,6.07
2022-10-20T05:49:03.606Z,6.27
2022-10-20T05:51:52.145Z,5.73
2022-10-20T05:54:40.641Z,7.00
2022-10-20T05:57:30.954Z,6.10
2022-10-20T06:00:30.009Z,6.95
2022-10-20T06:03:21.246Z,6.40
2022-10-20T06:06:12.079Z,7.30
2022-10-20T06:09:03.729Z,6.47
2022-10-20T06:11:55.279Z,7.00
2022-10-20T06:14:43.935Z,8.07
2022-10-20T06:17:34.488Z,7.27
2022-10-20T06:20:34.069Z,7.70
2022-10-20T06:26:26.524Z,7.03
2022-10-20T06:29:17.091Z,7.17
2022-10-20T06:32:05.645Z,7.60
2022-10-20T06:34:54.602Z,8.03
2022-10-20T06:37:45.711Z,7.40
2022-10-20T06:40:35.008Z,7.90
2022-10-20T06:43:24.613Z,7.10
2022-10-20T06:46:16.025Z,8.43
2022-10-20T06:49:06.163Z,7.87
2022-10-20T06:51:54.830Z,8.10
2022-10-20T06:54:44.991Z,7.80
2022-10-20T06:57:33.793Z,8.32
2022-10-20T07:00:23.172Z,8.93
2022-10-20T07:03:13.734Z,7.80
2022-10-20T07:06:07.260Z,7.40
2022-10-20T07:08:57.811Z,8.53
2022-10-20T07:11:52.409Z,7.90
2022-10-20T07:14:41.096Z,8.13
2022-10-20T07:17:29.614Z,7.50
2022-10-20T07:20:18.551Z,7.97
2022-10-20T07:23:06.755Z,7.77
2022-10-20T07:26:04.471Z,8.27
2022-10-20T07:28:59.326Z,7.80
2022-10-20T07:31:49.384Z,7.63
2022-10-20T07:34:37.452Z,8.37
2022-10-20T07:37:26.911Z,7.53
2022-10-20T07:40:18.482Z,8.03
2022-10-20T07:46:14.188Z,8.57
2022-10-20T07:49:31.250Z,8.10
2022-10-20T07:52:12.721Z,7.63
2022-10-20T07:55:17.598Z,7.90
2022-10-20T07:58:10.457Z,7.57
2022-10-20T08:01:01.819Z,8.90
2022-10-20T08:03:54.945Z,9.13
2022-10-20T08:06:44.332Z,8.80
2022-10-20T08:09:36.907Z,7.53
2022-10-20T08:12:25.216Z,7.63
2022-10-20T08:15:16.026Z,7.20
2022-10-20T08:18:05.523Z,8.33
2022-10-20T08:21:09.699Z,7.30
2022-10-20T08:23:57.998Z,6.30
2022-10-20T08:26:46.457Z,6.30
2022-10-20T08:29:37.050Z,5.60
2022-10-20T08:32:25.459Z,5.83
2022-10-20T08:35:13.757Z,5.47
2022-10-20T08:38:06.915Z,5.67
2022-10-20T08:40:55.356Z,5.13
2022-10-20T08:43:44.474Z,4.47
2022-10-20T08:46:37.692Z,4.80
2022-10-20T08:49:30.464Z,5.23
2022-10-20T08:52:23.044Z,4.83
2022-10-20T08:55:23.737Z,4.47
2022-10-20T08:58:15.282Z,5.63
2022-10-20T09:01:16.258Z,5.27
2022-10-20T09:04:11.059Z,5.43
2022-10-20T09:07:09.491Z,5.67
2022-10-20T09:10:09.111Z,5.27
2022-10-20T09:13:00.326Z,5.60
2022-10-20T09:15:49.791Z,5.07
2022-10-20T09:18:38.285Z,5.60
2022-10-20T09:21:26.697Z,4.93
2022-10-20T09:24:15.602Z,5.53
2022-10-20T09:27:21.348Z,5.70
2022-10-20T09:30:22.368Z,4.63
2022-10-20T09:33:22.914Z,5.17
2022-10-20T09:36:15.465Z,5.30
2022-10-20T09:39:03.787Z,5.37
2022-10-20T09:44:59.872Z,4.80
2022-10-20T09:47:52.591Z,5.57
2022-10-20T09:50:52.793Z,5.33
2022-10-20T09:53:52.118Z,5.17
2022-10-20T09:56:43.828Z,5.10
2022-10-20T09:59:37.136Z,4.60
2022-10-20T10:02:31.303Z,5.00
2022-10-20T10:05:22.486Z,5.40
2022-10-20T10:08:15.331Z,4.70
2022-10-20T10:11:05.638Z,4.77
2022-10-20T10:13:54.620Z,5.07
2022-10-20T10:16:44.942Z,4.30
2022-10-20T10:19:34.646Z,3.50
2022-10-20T10:22:26.835Z,3.60
2022-10-20T10:25:21.621Z,3.57
2022-10-20T10:28:23.655Z,3.80
2022-10-20T10:31:24.046Z,3.23
2022-10-20T10:34:32.220Z,3.27
2022-10-20T10:40:17.720Z,3.43
2022-10-20T10:43:29.943Z,3.47
2022-10-20T10:46:21.122Z,3.83
2022-10-20T10:49:29.676Z,3.50
2022-10-20T10:52:32.780Z,3.87
2022-10-20T10:55:47.770Z,2.90
2022-10-20T10:58:50.369Z,3.80
2022-10-20T11:02:42.910Z,4.03
2022-10-20T11:06:09.480Z,3.33
2022-10-20T11:09:08.501Z,3.40
2022-10-20T11:12:17.157Z,2.50
2022-10-20T11:15:24.906Z,3.00
2022-10-20T11:18:21.720Z,3.50
2022-10-20T11:21:23.385Z,3.30
2022-10-20T11:24:22.195Z,3.70
2022-10-20T11:27:15.534Z,2.90
2022-10-20T11:30:15.551Z,3.43
2022-10-20T11:33:14.339Z,3.30
2022-10-20T11:36:07.683Z,3.07
2022-10-20T11:38:57.256Z,2.70
2022-10-20T11:41:50.500Z,2.90
2022-10-20T11:44:42.720Z,2.77
2022-10-20T11:47:35.634Z,2.77
2022-10-20T11:50:24.832Z,2.47
2022-10-20T11:53:54.573Z,3.03
2022-10-20T11:57:06.467Z,2.57
2022-10-20T12:00:22.980Z,2.17
2022-10-20T12:03:43.988Z,2.70
2022-10-20T12:07:01.672Z,2.23
2022-10-20T12:10:01.976Z,2.73
2022-10-20T12:12:57.628Z,2.70
2022-10-20T12:15:48.642Z,1.93
2022-10-20T12:18:37.945Z,2.70
2022-10-20T12:21:55.078Z,2.77
2022-10-20T12:24:45.668Z,3.10
2022-10-20T12:27:34.036Z,2.93
2022-10-20T12:30:46.597Z,3.07
2022-10-20T12:34:03.833Z,2.93
2022-10-20T12:36:52.170Z,3.43
2022-10-20T12:39:40.888Z,3.50
2022-10-20T12:42:31.334Z,3.03
2022-10-20T12:45:35.622Z,3.00
2022-10-20T12:48:26.401Z,2.70
2022-10-20T12:51:24.782Z,3.00
2022-10-20T12:54:23.112Z,2.80
2022-10-20T12:57:29.521Z,2.63
2022-10-20T13:00:57.750Z,2.40
2022-10-20T13:03:48.781Z,2.60
2022-10-20T13:06:43.636Z,3.20
2022-10-20T13:09:32.322Z,3.27
2022-10-20T13:12:30.144Z,2.43
2022-10-20T13:15:21.759Z,3.17
2022-10-20T13:18:20.108Z,3.03
2022-10-20T13:21:30.771Z,2.97
2022-10-20T13:24:32.463Z,3.37
2022-10-20T13:27:20.805Z,3.10
2022-10-20T13:30:11.178Z,3.00
2022-10-20T13:33:17.766Z,3.30
2022-10-20T13:36:19.030Z,3.00
2022-10-20T13:39:18.568Z,3.20
2022-10-20T13:42:25.626Z,2.80
2022-10-20T13:45:25.857Z,3.70
2022-10-20T13:48:28.465Z,3.57
2022-10-20T13:51:22.328Z,3.10
2022-10-20T13:54:23.909Z,2.83
2022-10-20T13:57:26.556Z,3.90
2022-10-20T14:00:20.325Z,3.90
2022-10-20T14:03:19.080Z,3.70
2022-10-20T14:06:07.511Z,3.50
2022-10-20T14:08:58.085Z,3.70
2022-10-20T14:11:49.834Z,3.07
2022-10-20T14:14:45.444Z,3.40
2022-10-20T14:17:35.352Z,3.63
2022-10-20T14:20:27.263Z,3.33
2022-10-20T14:23:15.674Z,4.13
2022-10-20T14:26:05.944Z,4.13
2022-10-20T14:28:56.845Z,4.40
2022-10-20T14:31:49.359Z,3.30
2022-10-20T14:34:38.289Z,3.23
2022-10-20T14:37:32.238Z,3.03
2022-10-20T14:40:24.812Z,3.30
2022-10-20T14:43:18.609Z,3.60
2022-10-20T14:46:11.141Z,3.20
2022-10-20T14:49:03.053Z,3.07
2022-10-20T14:51:58.890Z,3.40
2022-10-20T16:58:36.398Z,5.77
